Rechercher aéroport 
image banner adimage banner ad
image banner ad

LI-CA01 - Amici dell

Situé à Settimo S. Pietro, Italy

ICAO - , IATA -

Données fournies par Airmate  

Information générale

Coordonnées: N39°19'41" E9°8'48"
Élévation : 472 feet MSL.
 
Évalué:
Voir évaluations:
[VIEW]
Voir autres Aéroports à Sardinia

Données opérationnelles

Accessible au public
Heure actuelle UTC:
Heure actuelle locale:
Météo à : LIEE - Cagliari/Elmas ( 12 km )
METAR: LIEE 261250Z 32023G34KT 9999 FEW035 22/05 Q1007
TAF: TAF LIEE 261100Z 2612/2712 29025G35KT 9999 SCT025 TEMPO 2703/2709 4000 TSRA
Voir NOTAMs / SUP AIP / TFR affectant cet aéroport [VIEW]
Fréquences de communication: [VIEW]

Pistes:

Identifiant RWYQFULongueur (ft)Largeur (ft)SurfaceLDA (ft)
141427164GRASS
321427164GRASS

Coordonnées de l'aéroport

Adresse: Settimo S. Pietro Italy

Autres services d'aviation

Clubs d'aviation (sans but lucratif)

Amici Dell'aira

Amici Dell'aira
amicidellaria@tiscali.it+39070571987
+39070571987

Vue satellite de LI-CA01